Time;durP1;ratioP1;P1;durP2;ratioP2;P2;SDS_P1;SDS_P2;PMS_P1;PMS_P2;Temp;Humidity;BMP_temperature;BMP_pressure;BME280_temperature;BME280_humidity;BME280_pressure;Samples;Min_cycle;Max_cycle;Signal;HPM_P1;HPM_P2
2021/12/10 00:01:09;;;;;;;31.58;11.23;;;;;;;2.75;100.00;99720.50;5098259;28;20364;-76
2021/12/10 00:03:39;;;;;;;23.60;10.15;;;;;;;2.74;100.00;99718.72;5053750;28;20089;-76
2021/12/10 00:06:30;;;;;;;26.13;11.40;;;;;;;2.71;100.00;99714.31;5090226;28;20151;-76
2021/12/10 00:09:16;;;;;;;28.38;11.02;;;;;;;2.75;100.00;99710.09;5081394;28;20032;-75
2021/12/10 00:11:55;;;;;;;23.48;10.30;;;;;;;2.75;100.00;99699.72;5104259;28;20398;-75
2021/12/10 00:14:29;;;;;;;30.67;11.15;;;;;;;2.76;100.00;99699.75;5112566;28;20056;-75
2021/12/10 00:16:55;;;;;;;29.90;10.93;;;;;;;2.76;100.00;99685.91;5104815;28;20034;-75
2021/12/10 00:19:38;;;;;;;20.20;11.27;;;;;;;2.78;100.00;99685.09;5088919;28;20036;-75
2021/12/10 00:22:12;;;;;;;21.88;10.57;;;;;;;2.78;100.00;99677.31;5104601;28;20028;-75
2021/12/10 00:24:40;;;;;;;29.45;11.05;;;;;;;2.73;100.00;99670.19;5107173;28;20077;-75
2021/12/10 00:27:08;;;;;;;29.85;12.32;;;;;;;2.75;100.00;99673.75;5090573;28;20019;-76
2021/12/10 00:29:37;;;;;;;28.08;11.40;;;;;;;2.71;100.00;99667.56;5082189;28;20027;-75
2021/12/10 00:32:16;;;;;;;25.38;10.45;;;;;;;2.73;100.00;99671.09;5100420;28;20036;-76
2021/12/10 00:34:49;;;;;;;28.23;11.85;;;;;;;2.74;100.00;99661.56;5104685;28;20048;-76
2021/12/10 00:37:19;;;;;;;25.73;11.30;;;;;;;2.75;100.00;99642.56;5107070;28;22375;-75
2021/12/10 00:39:52;;;;;;;25.27;11.57;;;;;;;2.78;100.00;99642.66;5091689;28;20486;-75
2021/12/10 00:42:22;;;;;;;31.85;12.88;;;;;;;2.77;100.00;99639.19;5097290;28;20079;-75
2021/12/10 00:44:48;;;;;;;31.15;11.88;;;;;;;2.80;100.00;99635.78;5088389;28;20653;-75
2021/12/10 00:47:15;;;;;;;28.13;13.27;;;;;;;2.79;100.00;99628.81;5085119;28;20081;-76
2021/12/10 00:49:41;;;;;;;28.80;14.32;;;;;;;2.78;100.00;99617.56;5100910;28;20051;-76
2021/12/10 00:52:08;;;;;;;26.02;13.40;;;;;;;2.81;100.00;99606.38;5101478;28;20526;-75
2021/12/10 00:54:35;;;;;;;29.65;14.00;;;;;;;2.81;100.00;99602.06;5085054;28;20055;-75
2021/12/10 00:57:01;;;;;;;27.75;14.63;;;;;;;2.80;100.00;99602.03;5086808;28;20459;-74
2021/12/10 00:59:27;;;;;;;31.23;13.65;;;;;;;2.79;100.00;99592.47;5106516;28;20472;-75
2021/12/10 01:01:53;;;;;;;26.75;13.57;;;;;;;2.76;100.00;99600.19;5107506;28;20548;-75
2021/12/10 01:04:26;;;;;;;26.45;12.82;;;;;;;2.75;100.00;99586.28;5101325;28;20016;-75
2021/12/10 01:06:54;;;;;;;32.50;12.68;;;;;;;2.74;100.00;99579.34;5085928;28;20063;-75
2021/12/10 01:09:26;;;;;;;23.95;12.48;;;;;;;2.68;100.00;99585.22;5103683;28;20038;-75
2021/12/10 01:11:58;;;;;;;27.50;12.07;;;;;;;2.69;100.00;99576.63;5106217;28;20028;-74
2021/12/10 01:14:55;;;;;;;26.17;11.70;;;;;;;2.67;100.00;99572.22;5079690;28;20119;-75
2021/12/10 01:25:54;;;;;;;25.50;11.23;;;;;;;2.57;100.00;99536.44;5103734;28;20057;-75
2021/12/10 01:28:20;;;;;;;22.83;12.10;;;;;;;2.54;100.00;99532.06;5100858;28;20019;-75
2021/12/10 01:30:46;;;;;;;32.13;13.55;;;;;;;2.51;100.00;99532.84;5103928;28;20039;-75
2021/12/10 01:33:16;;;;;;;28.45;12.15;;;;;;;2.48;100.00;99534.47;5099222;28;20085;-75
2021/12/10 01:35:56;;;;;;;33.17;14.15;;;;;;;2.47;100.00;99537.88;5103776;28;20047;-75
2021/12/10 01:38:23;;;;;;;26.38;14.38;;;;;;;2.45;100.00;99534.38;5081111;28;20039;-75
2021/12/10 01:40:54;;;;;;;33.85;13.00;;;;;;;2.43;100.00;99525.66;5094241;28;20031;-75
2021/12/10 01:43:23;;;;;;;29.42;13.93;;;;;;;2.40;100.00;99525.59;5081192;28;20115;-75
2021/12/10 01:45:55;;;;;;;31.75;14.52;;;;;;;2.40;100.00;99520.41;5082742;28;20020;-75
2021/12/10 01:48:30;;;;;;;29.25;13.65;;;;;;;2.38;100.00;99522.09;5104436;28;20302;-75
2021/12/10 01:50:57;;;;;;;30.35;13.13;;;;;;;2.36;100.00;99512.53;5079979;28;20114;-75
2021/12/10 01:53:26;;;;;;;32.63;14.55;;;;;;;2.30;100.00;99506.28;5093630;28;20032;-75
2021/12/10 01:55:56;;;;;;;29.10;13.88;;;;;;;2.28;100.00;99501.06;5098607;28;20043;-75
2021/12/10 01:58:25;;;;;;;22.17;12.90;;;;;;;2.26;100.00;99502.72;5099853;28;20889;-75
2021/12/10 02:00:59;;;;;;;24.95;13.23;;;;;;;2.25;100.00;99485.41;5082728;28;20031;-75
2021/12/10 02:03:25;;;;;;;23.67;13.15;;;;;;;2.21;100.00;99478.34;5093627;28;20026;-75
2021/12/10 02:05:51;;;;;;;25.92;13.70;;;;;;;2.20;100.00;99476.59;5084783;28;20020;-75
2021/12/10 02:08:16;;;;;;;23.83;12.77;;;;;;;2.19;100.00;99472.25;5100491;28;20054;-75
2021/12/10 02:10:42;;;;;;;24.35;11.57;;;;;;;2.14;100.00;99466.94;5099820;28;20044;-74
2021/12/10 02:13:09;;;;;;;25.25;12.35;;;;;;;2.14;100.00;99456.56;5102312;28;20068;-75
2021/12/10 02:15:34;;;;;;;30.17;12.60;;;;;;;2.16;100.00;99459.19;5086679;28;20087;-75
2021/12/10 02:18:00;;;;;;;20.35;11.63;;;;;;;2.16;100.00;99454.00;5094370;28;20119;-75
2021/12/10 02:20:32;;;;;;;19.77;11.07;;;;;;;2.14;100.00;99448.78;5077939;28;20535;-75
2021/12/10 02:23:00;;;;;;;23.77;11.25;;;;;;;2.15;100.00;99441.84;5075572;28;20035;-75
2021/12/10 02:25:29;;;;;;;23.88;11.45;;;;;;;2.16;100.00;99438.44;5099516;28;20483;-76
2021/12/10 02:27:56;;;;;;;17.55;10.40;;;;;;;2.14;100.00;99429.72;5082191;28;20052;-75
2021/12/10 02:30:27;;;;;;;22.52;10.23;;;;;;;2.14;100.00;99430.59;5108032;28;20069;-75
2021/12/10 02:32:52;;;;;;;25.20;9.30;;;;;;;2.12;100.00;99432.25;5101952;28;20036;-75
2021/12/10 02:35:18;;;;;;;28.65;11.05;;;;;;;2.15;100.00;99432.34;5096435;28;20062;-75
2021/12/10 02:37:46;;;;;;;21.15;9.60;;;;;;;2.18;100.00;99413.38;5100201;28;20076;-75
2021/12/10 02:40:14;;;;;;;19.58;9.55;;;;;;;2.18;100.00;99419.47;5083460;28;20032;-75
2021/12/10 02:42:40;;;;;;;25.10;9.30;;;;;;;2.24;100.00;99417.84;5098834;28;20036;-75
2021/12/10 02:45:08;;;;;;;18.63;9.63;;;;;;;2.26;100.00;99404.09;5103391;28;20433;-75
2021/12/10 02:47:34;;;;;;;19.45;8.65;;;;;;;2.30;100.00;99408.50;5091775;28;20020;-75
2021/12/10 02:50:00;;;;;;;17.15;8.25;;;;;;;2.32;100.00;99398.16;5108760;28;20035;-75
2021/12/10 02:52:27;;;;;;;18.45;8.60;;;;;;;2.35;100.00;99388.75;5105828;28;20499;-76
2021/12/10 02:54:54;;;;;;;19.02;8.45;;;;;;;2.38;100.00;99381.91;5078529;28;20074;-75
2021/12/10 02:57:20;;;;;;;19.10;7.47;;;;;;;2.40;100.00;99372.41;5105319;28;20032;-76
2021/12/10 02:59:47;;;;;;;18.63;8.10;;;;;;;2.41;100.00;99381.97;5085045;28;20119;-76
2021/12/10 03:02:17;;;;;;;16.83;8.23;;;;;;;2.46;100.00;99375.19;5088237;28;20019;-75
2021/12/10 03:04:43;;;;;;;18.05;8.13;;;;;;;2.47;100.00;99366.53;5088805;28;20061;-75
2021/12/10 03:07:13;;;;;;;13.93;7.47;;;;;;;2.47;100.00;99369.13;5082735;28;20053;-75
2021/12/10 03:09:41;;;;;;;16.42;7.03;;;;;;;2.49;100.00;99365.75;5107206;28;20024;-75
2021/12/10 03:12:08;;;;;;;18.08;7.15;;;;;;;2.51;100.00;99363.22;5076396;28;20036;-75
2021/12/10 03:14:37;;;;;;;19.80;7.35;;;;;;;2.53;100.00;99366.72;5100382;28;20032;-75
2021/12/10 03:17:08;;;;;;;17.40;8.55;;;;;;;2.56;100.00;99356.38;5101850;28;20028;-76
2021/12/10 03:19:34;;;;;;;20.45;7.40;;;;;;;2.57;100.00;99352.97;5105310;28;20106;-76
2021/12/10 03:21:59;;;;;;;18.55;7.15;;;;;;;2.57;100.00;99339.97;5102587;28;20064;-76
2021/12/10 03:24:28;;;;;;;23.90;6.80;;;;;;;2.56;100.00;99333.00;5096309;28;20019;-76
2021/12/10 03:26:57;;;;;;;15.18;7.85;;;;;;;2.52;100.00;99333.78;5105167;28;20039;-76
2021/12/10 03:29:25;;;;;;;24.40;7.20;;;;;;;2.54;100.00;99332.13;5084678;28;20499;-76
2021/12/10 03:31:53;;;;;;;17.05;7.55;;;;;;;2.49;100.00;99323.34;5086039;28;20081;-75
2021/12/10 03:34:19;;;;;;;19.48;7.43;;;;;;;2.50;100.00;99319.91;5070093;28;20484;-76
2021/12/10 03:36:46;;;;;;;15.38;7.45;;;;;;;2.49;100.00;99318.13;5060614;28;20168;-76
2021/12/10 03:39:18;;;;;;;16.00;7.35;;;;;;;2.48;100.00;99324.16;5068908;28;20033;-75
2021/12/10 03:41:44;;;;;;;22.63;6.65;;;;;;;2.46;100.00;99315.47;5056992;28;20036;-75
2021/12/10 03:44:11;;;;;;;18.23;6.75;;;;;;;2.47;100.00;99314.63;5058516;28;20082;-75
2021/12/10 03:46:37;;;;;;;18.40;7.55;;;;;;;2.48;100.00;99313.78;5058026;28;20036;-75
2021/12/10 03:49:05;;;;;;;17.98;6.80;;;;;;;2.47;100.00;99304.22;5062448;28;20175;-75
2021/12/10 03:51:34;;;;;;;23.58;8.68;;;;;;;2.50;100.00;99288.75;5063342;28;20029;-75
2021/12/10 03:54:00;;;;;;;19.70;6.88;;;;;;;2.48;100.00;99288.72;5062342;28;20469;-75
2021/12/10 03:56:29;;;;;;;17.25;6.53;;;;;;;2.47;100.00;99296.44;5068078;28;20063;-75
2021/12/10 03:58:59;;;;;;;14.63;5.80;;;;;;;2.48;100.00;99285.22;5065364;28;20035;-75
2021/12/10 04:01:29;;;;;;;18.83;6.53;;;;;;;2.46;100.00;99280.00;5063475;28;20353;-76
2021/12/10 04:03:57;;;;;;;18.27;6.32;;;;;;;2.47;100.00;99267.88;5063161;28;20476;-76
2021/12/10 04:06:23;;;;;;;12.32;6.40;;;;;;;2.46;100.00;99261.81;5071025;28;20021;-75
2021/12/10 04:08:49;;;;;;;14.50;5.70;;;;;;;2.47;100.00;99263.59;5067139;28;20032;-76
2021/12/10 04:11:16;;;;;;;19.40;6.28;;;;;;;2.48;100.00;99264.44;5065701;28;20035;-76
2021/12/10 04:13:46;;;;;;;17.85;5.72;;;;;;;2.48;100.00;99252.38;5060597;28;20029;-75
2021/12/10 04:16:11;;;;;;;18.67;5.93;;;;;;;2.46;100.00;99253.16;5058652;28;20032;-75
2021/12/10 04:18:37;;;;;;;20.17;6.28;;;;;;;2.47;100.00;99241.91;5065364;28;20039;-76
2021/12/10 04:21:08;;;;;;;17.33;6.05;;;;;;;2.48;100.00;99233.28;5057448;28;20117;-75
2021/12/10 04:23:37;;;;;;;13.00;5.72;;;;;;;2.48;100.00;99233.28;5060005;28;20041;-76
2021/12/10 04:26:03;;;;;;;11.45;5.03;;;;;;;2.49;100.00;99237.66;5061662;28;20468;-76
2021/12/10 04:28:29;;;;;;;18.73;5.22;;;;;;;2.53;100.00;99231.69;5062881;28;20021;-76
2021/12/10 04:30:55;;;;;;;14.45;5.10;;;;;;;2.56;100.00;99221.38;5066285;28;20464;-75
2021/12/10 04:33:25;;;;;;;17.70;6.18;;;;;;;2.57;100.00;99217.94;5058856;28;20020;-76
2021/12/10 04:35:54;;;;;;;11.68;5.10;;;;;;;2.60;100.00;99205.00;5048061;28;20049;-75
2021/12/10 04:38:22;;;;;;;12.77;5.25;;;;;;;2.59;100.00;99200.69;5064958;28;20051;-75
2021/12/10 04:40:49;;;;;;;20.85;6.07;;;;;;;2.58;100.00;99198.91;5069124;28;20041;-76
2021/12/10 04:43:17;;;;;;;12.82;4.60;;;;;;;2.60;100.00;99201.53;5057541;28;20358;-76
2021/12/10 04:45:42;;;;;;;13.02;4.85;;;;;;;2.60;100.00;99196.34;5062629;28;20024;-76
2021/12/10 04:48:08;;;;;;;11.60;4.13;;;;;;;2.60;100.00;99191.16;5066728;28;20023;-76
2021/12/10 04:50:34;;;;;;;17.33;4.97;;;;;;;2.62;100.00;99190.34;5059636;28;20052;-76
2021/12/10 04:53:00;;;;;;;14.32;4.65;;;;;;;2.64;100.00;99188.66;5057987;28;20631;-75
2021/12/10 04:55:26;;;;;;;14.25;4.40;;;;;;;2.65;100.00;99189.53;5071305;28;20468;-77
2021/12/10 04:57:52;;;;;;;17.27;4.53;;;;;;;2.66;100.00;99186.97;5064842;28;20029;-76
2021/12/10 05:00:33;;;;;;;10.55;4.32;;;;;;;2.68;100.00;99174.03;5062905;28;20036;-77
2021/12/10 05:03:04;;;;;;;12.68;3.47;;;;;;;2.70;100.00;99169.75;5067064;28;20115;-76
2021/12/10 05:05:30;;;;;;;12.27;4.15;;;;;;;2.69;100.00;99163.66;5057589;28;20025;-76
2021/12/10 05:07:55;;;;;;;7.90;3.45;;;;;;;2.70;100.00;99156.78;5064461;28;20090;-76
2021/12/10 05:10:21;;;;;;;9.95;3.80;;;;;;;2.73;100.00;99162.00;5061425;28;20443;-76
2021/12/10 05:12:47;;;;;;;10.57;3.42;;;;;;;2.73;100.00;99166.31;5066450;28;20082;-76
2021/12/10 05:15:18;;;;;;;8.38;3.15;;;;;;;2.75;100.00;99154.25;5062599;28;20071;-76
2021/12/10 05:17:43;;;;;;;11.60;3.10;;;;;;;2.76;100.00;99150.81;5070547;28;20392;-76
2021/12/10 05:20:16;;;;;;;10.23;3.08;;;;;;;2.78;100.00;99149.09;5058230;28;20024;-76
2021/12/10 05:22:45;;;;;;;9.20;2.80;;;;;;;2.78;100.00;99143.91;5068929;28;20116;-76
2021/12/10 05:25:12;;;;;;;10.05;2.92;;;;;;;2.81;100.00;99141.41;5068386;28;20079;-76
2021/12/10 05:27:38;;;;;;;11.50;3.38;;;;;;;2.80;100.00;99139.66;5068195;28;20044;-76
2021/12/10 05:30:07;;;;;;;5.15;2.40;;;;;;;2.81;100.00;99144.88;5063856;28;20111;-76
2021/12/10 05:32:34;;;;;;;9.05;2.90;;;;;;;2.83;100.00;99142.28;5061371;28;20099;-76
2021/12/10 05:35:00;;;;;;;6.43;2.75;;;;;;;2.84;100.00;99138.84;5089653;28;20043;-76
2021/12/10 05:37:26;;;;;;;11.85;2.80;;;;;;;2.84;100.00;99142.31;5095806;28;20036;-76
2021/12/10 05:39:53;;;;;;;13.00;2.78;;;;;;;2.86;100.00;99137.16;5073650;28;20065;-76
2021/12/10 05:42:18;;;;;;;13.45;2.55;;;;;;;2.86;100.00;99143.25;5103587;28;20023;-76
2021/12/10 05:44:44;;;;;;;13.50;2.95;;;;;;;2.85;100.00;99145.81;5078313;28;20038;-76
2021/12/10 05:47:10;;;;;;;12.70;2.70;;;;;;;2.86;100.00;99134.56;5108483;28;20480;-76
2021/12/10 05:49:36;;;;;;;8.75;2.72;;;;;;;2.86;100.00;99134.56;5098256;28;20489;-76
2021/12/10 05:52:03;;;;;;;6.50;2.00;;;;;;;2.87;100.00;99133.72;5082686;28;20055;-76
2021/12/10 05:54:29;;;;;;;9.55;2.67;;;;;;;2.89;100.00;99137.22;5104594;28;20020;-75
2021/12/10 05:56:54;;;;;;;15.13;2.97;;;;;;;2.87;100.00;99134.56;5085079;28;20115;-75
2021/12/10 05:59:20;;;;;;;5.25;2.25;;;;;;;2.88;100.00;99130.28;5092020;28;20019;-76
2021/12/10 06:01:46;;;;;;;11.82;2.80;;;;;;;2.85;100.00;99138.03;5085540;28;20039;-76
2021/12/10 06:04:11;;;;;;;16.33;3.60;;;;;;;2.84;100.00;99134.53;5081509;28;20391;-75
2021/12/10 06:06:38;;;;;;;7.50;2.53;;;;;;;2.87;100.00;99133.72;5099976;28;20027;-76
2021/12/10 06:09:07;;;;;;;8.48;2.40;;;;;;;2.87;100.00;99144.97;5086153;28;20030;-75
2021/12/10 06:11:34;;;;;;;8.75;2.53;;;;;;;2.87;100.00;99144.97;5087571;28;20031;-75
2021/12/10 06:14:00;;;;;;;11.73;2.75;;;;;;;2.87;100.00;99149.31;5082996;28;20031;-75
2021/12/10 06:16:25;;;;;;;7.45;2.80;;;;;;;2.89;100.00;99147.63;5085734;28;20050;-75
2021/12/10 06:18:51;;;;;;;9.18;2.65;;;;;;;2.90;100.00;99151.94;5080883;28;20472;-75
2021/12/10 06:21:23;;;;;;;7.90;2.33;;;;;;;2.90;100.00;99146.75;5084949;28;20027;-76
2021/12/10 06:23:49;;;;;;;6.13;2.75;;;;;;;2.92;100.00;99145.09;5106241;28;20039;-76
2021/12/10 06:26:14;;;;;;;7.60;2.30;;;;;;;2.95;100.00;99149.47;5102147;28;20433;-75
2021/12/10 06:28:44;;;;;;;8.00;2.08;;;;;;;2.98;100.00;99155.56;5090018;28;20563;-73
2021/12/10 06:31:15;;;;;;;9.00;2.25;;;;;;;2.97;100.00;99148.66;5095834;28;20432;-76
2021/12/10 06:33:41;;;;;;;13.10;2.88;;;;;;;2.98;100.00;99150.38;5093856;28;20077;-76
2021/12/10 06:36:06;;;;;;;6.43;2.38;;;;;;;2.97;100.00;99153.84;5109468;28;20019;-73
2021/12/10 06:38:34;;;;;;;13.98;3.05;;;;;;;2.97;100.00;99147.75;5096592;28;20152;-73
2021/12/10 06:41:00;;;;;;;7.88;2.20;;;;;;;2.96;100.00;99146.88;5095313;28;20067;-74
2021/12/10 06:43:26;;;;;;;6.82;2.30;;;;;;;2.93;100.00;99152.03;5089384;28;20381;-75
2021/12/10 06:45:53;;;;;;;8.65;2.78;;;;;;;2.93;100.00;99144.25;5082539;28;20487;-75
2021/12/10 06:48:21;;;;;;;12.55;3.05;;;;;;;2.90;100.00;99148.50;5088651;28;20039;-75
2021/12/10 06:50:54;;;;;;;6.50;2.47;;;;;;;2.88;100.00;99156.25;5106514;28;20024;-74
2021/12/10 06:53:22;;;;;;;22.13;9.10;;;;;;;2.87;100.00;99150.16;5081876;28;20034;-75
2021/12/10 06:55:48;;;;;;;10.55;3.35;;;;;;;2.88;100.00;99151.06;5083460;28;20297;-75
2021/12/10 06:58:15;;;;;;;9.20;2.67;;;;;;;2.84;100.00;99157.03;5099005;28;20107;-75
2021/12/10 07:00:50;;;;;;;9.48;3.10;;;;;;;2.84;100.00;99155.31;5098591;28;20027;-77
2021/12/10 07:03:21;;;;;;;12.93;3.00;;;;;;;2.81;100.00;99168.25;5097667;28;20084;-75
2021/12/10 07:05:48;;;;;;;6.47;2.42;;;;;;;2.82;100.00;99171.72;5089427;28;20122;-74
2021/12/10 07:08:15;;;;;;;8.95;2.83;;;;;;;2.81;100.00;99163.06;5078865;28;20055;-74
2021/12/10 07:10:40;;;;;;;11.98;2.35;;;;;;;2.79;100.00;99153.47;5098053;28;20432;-74
2021/12/10 07:13:06;;;;;;;10.93;3.05;;;;;;;2.80;100.00;99165.63;5099201;28;20114;-73
2021/12/10 07:15:35;;;;;;;11.98;3.03;;;;;;;2.81;100.00;99169.97;5102028;28;20028;-74
2021/12/10 07:18:00;;;;;;;8.90;3.28;;;;;;;2.79;100.00;99169.91;5104375;28;20422;-74
2021/12/10 07:20:27;;;;;;;16.58;3.13;;;;;;;2.79;100.00;99175.13;5085147;28;20024;-74
2021/12/10 07:22:52;;;;;;;9.07;3.08;;;;;;;2.80;100.00;99182.06;5098522;28;20039;-74
2021/12/10 07:25:20;;;;;;;12.70;3.60;;;;;;;2.78;100.00;99175.97;5079514;28;20031;-74
2021/12/10 07:27:47;;;;;;;7.88;2.97;;;;;;;2.79;100.00;99176.84;5085015;28;20031;-73
2021/12/10 07:30:15;;;;;;;13.25;3.40;;;;;;;2.78;100.00;99181.19;5086310;28;20031;-75
2021/12/10 07:32:40;;;;;;;9.77;4.15;;;;;;;2.79;100.00;99182.91;5080475;28;20032;-74
2021/12/10 07:35:08;;;;;;;10.27;3.72;;;;;;;2.80;100.00;99178.59;5092470;28;20036;-75
2021/12/10 07:37:35;;;;;;;12.73;3.80;;;;;;;2.81;100.00;99188.16;5102389;28;20027;-75
2021/12/10 07:40:02;;;;;;;10.90;3.78;;;;;;;2.82;100.00;99182.09;5075940;28;20132;-75
2021/12/10 07:42:27;;;;;;;6.07;3.15;;;;;;;2.83;100.00;99178.66;5114345;28;20486;-75
2021/12/10 07:44:56;;;;;;;17.83;3.63;;;;;;;2.83;100.00;99182.13;5100676;28;20024;-75
2021/12/10 07:47:22;;;;;;;10.43;3.90;;;;;;;2.86;100.00;99181.31;5091696;28;20140;-76
2021/12/10 07:49:48;;;;;;;10.93;3.30;;;;;;;2.82;100.00;99187.28;5084811;28;20024;-75
2021/12/10 07:52:20;;;;;;;15.30;3.75;;;;;;;2.83;100.00;99183.84;5107240;28;20033;-75
2021/12/10 07:54:46;;;;;;;13.07;3.93;;;;;;;2.82;100.00;99193.38;5086482;28;20020;-75
2021/12/10 07:57:14;;;;;;;12.52;4.07;;;;;;;2.80;100.00;99194.19;5080858;28;20043;-75
2021/12/10 07:59:39;;;;;;;9.93;3.65;;;;;;;2.80;100.00;99194.19;5110294;28;20506;-75
2021/12/10 08:02:05;;;;;;;6.47;4.05;;;;;;;2.78;100.00;99191.56;5081423;28;20024;-75
2021/12/10 08:04:31;;;;;;;6.95;3.42;;;;;;;2.74;100.00;99194.03;5097083;28;20020;-75
2021/12/10 08:06:56;;;;;;;10.00;4.45;;;;;;;2.68;100.00;99195.66;5105772;28;20060;-75
2021/12/10 08:09:23;;;;;;;8.43;4.13;;;;;;;2.67;100.00;99196.53;5088259;28;20383;-75
2021/12/10 08:11:49;;;;;;;9.40;3.63;;;;;;;2.65;100.00;99198.19;5108730;28;20027;-76
2021/12/10 08:14:16;;;;;;;9.80;4.35;;;;;;;2.63;100.00;99199.91;5087068;28;20036;-75
2021/12/10 08:16:42;;;;;;;16.67;4.72;;;;;;;2.62;100.00;99205.03;5105009;28;20040;-74
2021/12/10 08:19:10;;;;;;;14.10;4.70;;;;;;;2.65;100.00;99211.19;5081042;28;20024;-75
2021/12/10 08:21:37;;;;;;;18.77;6.75;;;;;;;2.65;100.00;99202.53;5108505;28;20564;-76
2021/12/10 08:24:02;;;;;;;10.75;4.60;;;;;;;2.63;100.00;99210.28;5086382;28;20471;-77
2021/12/10 08:26:28;;;;;;;16.50;4.70;;;;;;;2.63;100.00;99207.69;5086808;28;20027;-75
2021/12/10 08:28:54;;;;;;;10.60;4.45;;;;;;;2.66;100.00;99212.09;5104931;28;20024;-75
2021/12/10 08:31:19;;;;;;;12.18;4.80;;;;;;;2.65;100.00;99215.50;5083985;28;20035;-76
2021/12/10 08:33:48;;;;;;;12.45;5.07;;;;;;;2.68;100.00;99211.25;5102778;28;20399;-75
2021/12/10 08:36:15;;;;;;;14.05;5.15;;;;;;;2.69;100.00;99210.41;5078009;28;20046;-75
2021/12/10 08:38:40;;;;;;;21.88;7.70;;;;;;;2.72;100.00;99216.53;5102333;28;20461;-75
2021/12/10 08:41:10;;;;;;;16.17;5.07;;;;;;;2.70;100.00;99214.75;5102585;28;20051;-75
2021/12/10 08:43:36;;;;;;;14.40;4.65;;;;;;;2.73;100.00;99213.06;5111824;28;20076;-75
2021/12/10 08:46:03;;;;;;;14.13;4.70;;;;;;;2.73;100.00;99213.97;5096266;28;20483;-75
2021/12/10 08:48:31;;;;;;;18.10;5.43;;;;;;;2.74;100.00;99228.72;5096583;28;20036;-75
2021/12/10 08:51:00;;;;;;;10.40;5.07;;;;;;;2.76;100.00;99218.34;5107493;28;20040;-76
2021/12/10 08:53:26;;;;;;;17.40;4.72;;;;;;;2.77;100.00;99226.16;5101297;28;20451;-76
2021/12/10 08:55:55;;;;;;;10.52;5.10;;;;;;;2.79;100.00;99226.19;5106334;28;20066;-76
2021/12/10 08:58:22;;;;;;;10.40;5.07;;;;;;;2.81;100.00;99229.72;5109177;28;20023;-76
2021/12/10 09:00:53;;;;;;;23.23;5.63;;;;;;;2.81;100.00;99230.59;5077600;28;20020;-76
2021/12/10 09:03:18;;;;;;;20.38;5.22;;;;;;;2.86;100.00;99228.06;5097616;28;20119;-76
2021/12/10 09:05:44;;;;;;;10.80;4.15;;;;;;;2.86;100.00;99233.28;5100862;28;20043;-77
2021/12/10 09:08:10;;;;;;;12.82;4.60;;;;;;;2.87;100.00;99253.22;5078054;28;20028;-76
2021/12/10 09:10:38;;;;;;;16.50;4.50;;;;;;;2.84;100.00;99248.81;5089900;28;20077;-76
2021/12/10 09:13:12;;;;;;;10.57;4.65;;;;;;;2.86;100.00;99251.44;5086442;28;20109;-76
2021/12/10 09:15:37;;;;;;;20.63;5.25;;;;;;;2.88;100.00;99249.78;5107479;28;20043;-76
2021/12/10 09:18:05;;;;;;;13.13;4.53;;;;;;;2.88;100.00;99257.56;5084861;28;20028;-76
2021/12/10 09:20:38;;;;;;;13.50;4.68;;;;;;;2.87;100.00;99261.00;5100716;28;20023;-76
2021/12/10 09:23:07;;;;;;;14.10;4.70;;;;;;;2.89;100.00;99264.53;5089477;28;20027;-76
2021/12/10 09:25:34;;;;;;;14.18;3.95;;;;;;;2.89;100.00;99264.53;5091140;28;20485;-76
2021/12/10 09:28:00;;;;;;;20.98;4.90;;;;;;;2.88;100.00;99275.75;5103747;28;20027;-76
2021/12/10 09:30:28;;;;;;;18.35;5.30;;;;;;;2.90;100.00;99273.19;5081556;28;20499;-76
2021/12/10 09:32:54;;;;;;;17.10;4.70;;;;;;;2.91;100.00;99278.41;5103814;28;20051;-76
2021/12/10 09:35:22;;;;;;;14.23;6.35;;;;;;;2.92;100.00;99277.56;5097387;28;20124;-76
2021/12/10 09:37:48;;;;;;;10.52;4.60;;;;;;;2.92;100.00;99277.56;5096512;28;20024;-75
2021/12/10 09:40:20;;;;;;;15.40;5.03;;;;;;;2.95;100.00;99280.22;5089769;28;20023;-76
2021/12/10 09:42:47;;;;;;;19.30;4.90;;;;;;;2.95;100.00;99279.38;5092571;28;20062;-75
2021/12/10 09:45:17;;;;;;;13.00;5.18;;;;;;;2.97;100.00;99291.56;5102082;28;20104;-76
2021/12/10 09:47:43;;;;;;;14.82;5.43;;;;;;;3.03;100.00;99291.66;5078185;28;20024;-76
2021/12/10 09:50:10;;;;;;;14.90;5.68;;;;;;;2.98;100.00;99293.28;5107362;28;20044;-76
2021/12/10 09:52:36;;;;;;;18.30;5.32;;;;;;;2.96;100.00;99300.19;5106686;28;20035;-76
2021/12/10 09:55:06;;;;;;;12.55;4.90;;;;;;;2.96;100.00;99296.72;5078798;28;20028;-76
2021/12/10 09:57:34;;;;;;;13.27;4.80;;;;;;;2.94;100.00;99296.66;5067989;28;20576;-76
2021/12/10 10:00:04;;;;;;;14.65;5.50;;;;;;;2.95;100.00;99295.81;5098960;28;20072;-76
2021/12/10 10:02:32;;;;;;;8.55;4.13;;;;;;;2.97;100.00;99293.25;5098009;28;20145;-77
2021/12/10 10:04:57;;;;;;;21.27;5.43;;;;;;;2.95;100.00;99298.41;5083689;28;20028;-77
2021/12/10 10:07:29;;;;;;;18.73;5.60;;;;;;;2.93;100.00;99299.22;5085320;28;20368;-77
2021/12/10 10:10:09;;;;;;;15.95;5.50;;;;;;;2.89;100.00;99300.91;5097659;28;20016;-77
2021/12/10 10:12:38;;;;;;;14.73;5.22;;;;;;;2.92;100.00;99300.97;5086622;28;20483;-77
2021/12/10 10:15:09;;;;;;;10.55;5.13;;;;;;;2.93;100.00;99294.03;5095424;28;20026;-77
2021/12/10 10:17:35;;;;;;;19.17;5.72;;;;;;;2.92;100.00;99298.38;5104540;28;20035;-76
2021/12/10 10:20:00;;;;;;;30.20;6.72;;;;;;;2.93;100.00;99304.44;5100214;28;20080;-77
2021/12/10 10:22:29;;;;;;;13.10;5.68;;;;;;;2.94;100.00;99306.19;5102749;28;20043;-77
2021/12/10 10:24:55;;;;;;;19.00;6.22;;;;;;;2.93;100.00;99309.63;5094041;28;20460;-77
2021/12/10 10:27:28;;;;;;;15.75;6.00;;;;;;;2.93;100.00;99314.81;5083322;28;20438;-77
2021/12/10 10:30:01;;;;;;;15.83;5.80;;;;;;;2.92;100.00;99311.34;5083400;28;20039;-77
2021/12/10 10:32:30;;;;;;;22.67;5.73;;;;;;;2.92;100.00;99308.75;5109212;28;20032;-77
2021/12/10 10:35:01;;;;;;;19.92;5.80;;;;;;;2.91;100.00;99309.59;5076677;28;20063;-77
2021/12/10 10:37:27;;;;;;;17.27;5.75;;;;;;;2.91;100.00;99300.94;5103172;28;20475;-77
2021/12/10 10:39:52;;;;;;;15.20;5.85;;;;;;;2.90;100.00;99314.75;5081843;28;20106;-77
2021/12/10 10:42:24;;;;;;;16.75;7.07;;;;;;;2.92;100.00;99313.94;5107469;28;20497;-77
2021/12/10 10:44:50;;;;;;;23.33;6.40;;;;;;;2.94;100.00;99307.06;5107201;28;20023;-77
2021/12/10 10:47:16;;;;;;;18.98;6.32;;;;;;;2.95;100.00;99314.00;5102740;28;20031;-77
2021/12/10 10:49:52;;;;;;;15.23;6.10;;;;;;;2.97;100.00;99322.75;5097812;28;20462;-77
2021/12/10 10:52:33;;;;;;;25.65;6.63;;;;;;;2.97;100.00;99317.53;5103265;28;20381;-77
2021/12/10 10:55:11;;;;;;;19.27;7.95;;;;;;;2.96;100.00;99320.97;5106654;28;20085;-77
2021/12/10 10:57:40;;;;;;;17.60;7.57;;;;;;;3.01;100.00;99326.25;5090237;28;20579;-77
2021/12/10 11:00:32;;;;;;;23.23;8.50;;;;;;;2.98;100.00;99323.59;5093062;28;20031;-78
2021/12/10 11:03:10;;;;;;;26.70;7.78;;;;;;;3.00;100.00;99325.41;5092465;28;20024;-77
2021/12/10 11:05:45;;;;;;;16.27;7.55;;;;;;;3.00;100.00;99325.41;5086174;28;20484;-77
2021/12/10 11:08:12;;;;;;;27.00;7.60;;;;;;;3.01;100.00;99324.56;5086374;28;20024;-77
2021/12/10 11:10:41;;;;;;;16.63;7.53;;;;;;;3.06;100.00;99329.84;5089560;28;20609;-77
2021/12/10 11:13:20;;;;;;;20.45;8.75;;;;;;;3.08;100.00;99324.69;5099561;28;20038;-78
2021/12/10 11:16:02;;;;;;;24.00;8.50;;;;;;;3.07;100.00;99333.34;5101869;28;20468;-75
2021/12/10 11:18:37;;;;;;;22.20;9.23;;;;;;;3.08;100.00;99329.88;5100609;28;20476;-75
2021/12/10 11:21:03;;;;;;;23.15;8.50;;;;;;;3.12;100.00;99335.19;5101598;28;20108;-77
2021/12/10 11:23:30;;;;;;;18.13;7.95;;;;;;;3.15;100.00;99337.84;5087256;28;20074;-75
2021/12/10 11:25:57;;;;;;;30.13;9.40;;;;;;;3.17;100.00;99343.06;5105538;28;20107;-75
2021/12/10 11:28:30;;;;;;;22.33;9.55;;;;;;;3.21;100.00;99347.50;5084484;28;20024;-75
2021/12/10 11:31:03;;;;;;;17.63;7.70;;;;;;;3.22;100.00;99341.47;5108054;28;20053;-77
2021/12/10 11:33:32;;;;;;;20.30;9.32;;;;;;;3.23;100.00;99343.22;5110313;28;20031;-77
2021/12/10 11:36:05;;;;;;;29.48;9.68;;;;;;;3.25;100.00;99353.66;5101443;28;20040;-77
2021/12/10 11:38:33;;;;;;;20.27;9.43;;;;;;;3.27;100.00;99342.44;5079876;28;20038;-75